createdAt,value
2023-04-24T00:01:02.342Z,99567.09
2023-04-24T00:03:29.283Z,99563.41
2023-04-24T00:05:56.068Z,99559.06
2023-04-24T00:08:23.785Z,99561.59
2023-04-24T00:10:50.284Z,99568.16
2023-04-24T00:13:16.667Z,99569.66
2023-04-24T00:15:43.086Z,99560.47
2023-04-24T00:18:09.457Z,99563.34
2023-04-24T00:20:38.523Z,99561.59
2023-04-24T00:23:04.927Z,99562.88
2023-04-24T00:25:31.403Z,99560.00
2023-04-24T00:27:57.902Z,99562.06
2023-04-24T00:30:24.301Z,99571.53
2023-04-24T00:32:50.807Z,99562.63
2023-04-24T00:35:17.634Z,99561.00
2023-04-24T00:37:44.371Z,99553.31
2023-04-24T00:40:11.621Z,99555.16
2023-04-24T00:42:38.110Z,99550.81
2023-04-24T00:45:05.453Z,99549.50
2023-04-24T00:47:34.425Z,99550.28
2023-04-24T00:50:05.650Z,99546.97
2023-04-24T00:52:33.520Z,99545.69
2023-04-24T00:55:00.415Z,99548.50
2023-04-24T00:57:27.800Z,99552.25
2023-04-24T00:59:55.006Z,99543.91
2023-04-24T01:02:23.657Z,99556.88
2023-04-24T01:04:51.963Z,99557.44
2023-04-24T01:07:22.283Z,99553.53
2023-04-24T01:09:52.996Z,99553.97
2023-04-24T01:12:20.495Z,99550.63
2023-04-24T01:14:47.077Z,99551.06
2023-04-24T01:17:16.166Z,99553.91
2023-04-24T01:19:46.207Z,99550.09
2023-04-24T01:22:17.220Z,99547.53
2023-04-24T01:24:44.179Z,99551.03
2023-04-24T01:27:12.913Z,99562.69
2023-04-24T01:29:40.203Z,99564.09
2023-04-24T01:32:07.525Z,99561.97
2023-04-24T01:34:34.936Z,99561.97
2023-04-24T01:37:02.242Z,99565.31
2023-04-24T01:39:29.602Z,99566.56
2023-04-24T01:41:56.873Z,99566.16
2023-04-24T01:44:23.900Z,99561.72
2023-04-24T01:46:50.658Z,99555.66
2023-04-24T01:49:17.302Z,99566.16
2023-04-24T01:51:45.719Z,99566.97
2023-04-24T01:54:12.815Z,99565.03
2023-04-24T01:56:43.422Z,99569.28
2023-04-24T01:59:12.107Z,99567.16
2023-04-24T02:01:39.264Z,99572.59
2023-04-24T02:04:07.026Z,99570.25
2023-04-24T02:06:35.891Z,99564.69
2023-04-24T02:09:03.989Z,99561.38
2023-04-24T02:11:30.459Z,99561.66
2023-04-24T02:13:57.964Z,99558.84
2023-04-24T02:16:24.503Z,99551.16
2023-04-24T02:18:51.189Z,99536.94
2023-04-24T02:21:17.629Z,99538.75
2023-04-24T02:23:44.017Z,99537.97
2023-04-24T02:26:13.025Z,99537.66
2023-04-24T02:28:39.429Z,99541.84
2023-04-24T02:31:07.216Z,99544.06
2023-04-24T02:33:34.145Z,99546.31
2023-04-24T02:36:00.933Z,99537.66
2023-04-24T02:38:27.817Z,99539.53
2023-04-24T02:40:54.331Z,99534.09
2023-04-24T02:43:21.131Z,99543.59
2023-04-24T02:45:48.053Z,99536.66
2023-04-24T02:48:14.627Z,99545.28
2023-04-24T02:50:41.248Z,99535.66
2023-04-24T02:53:07.688Z,99550.50
2023-04-24T02:55:34.186Z,99543.13
2023-04-24T02:58:00.934Z,99550.97
2023-04-24T03:00:27.795Z,99550.50
2023-04-24T03:02:54.441Z,99550.84
2023-04-24T03:05:21.193Z,99557.19
2023-04-24T03:07:48.041Z,99554.59
2023-04-24T03:10:14.559Z,99553.97
2023-04-24T03:12:41.860Z,99552.69
2023-04-24T03:15:08.979Z,99553.69
2023-04-24T03:17:37.956Z,99542.41
2023-04-24T03:20:06.360Z,99556.28
2023-04-24T03:22:33.784Z,99547.03
2023-04-24T03:25:02.234Z,99544.44
2023-04-24T03:27:28.810Z,99544.44
2023-04-24T03:29:59.701Z,99553.72
2023-04-24T03:32:34.775Z,99559.34
2023-04-24T03:35:02.276Z,99553.72
2023-04-24T03:37:29.184Z,99548.00
2023-04-24T03:40:09.107Z,99545.56
2023-04-24T03:42:39.115Z,99544.56
2023-04-24T03:45:07.140Z,99538.72
2023-04-24T03:47:36.293Z,99535.69
2023-04-24T03:50:06.102Z,99525.22
2023-04-24T03:52:33.886Z,99522.22
2023-04-24T03:55:00.794Z,99526.03
2023-04-24T03:57:29.764Z,99526.84
2023-04-24T04:00:11.288Z,99520.59
2023-04-24T04:02:41.147Z,99516.78
2023-04-24T04:05:09.116Z,99512.88
2023-04-24T04:07:35.603Z,99518.41
2023-04-24T04:10:02.427Z,99516.97
2023-04-24T04:12:29.291Z,99523.72
2023-04-24T04:14:55.801Z,99522.69
2023-04-24T04:17:22.716Z,99519.09
2023-04-24T04:19:49.362Z,99521.59
2023-04-24T04:22:15.795Z,99520.91
2023-04-24T04:24:47.194Z,99523.53
2023-04-24T04:27:14.296Z,99525.63
2023-04-24T04:29:48.145Z,99526.97
2023-04-24T04:32:16.991Z,99523.50
2023-04-24T04:34:43.726Z,99521.91
2023-04-24T04:37:13.542Z,99523.50
2023-04-24T04:40:01.716Z,99516.56
2023-04-24T04:42:41.214Z,99519.69
2023-04-24T04:45:12.335Z,99519.59
2023-04-24T04:47:52.053Z,99529.97
2023-04-24T04:50:19.520Z,99525.44
2023-04-24T04:52:48.628Z,99518.50
2023-04-24T04:55:23.354Z,99525.50
2023-04-24T04:58:25.551Z,99531.13
2023-04-24T05:00:55.995Z,99518.66
2023-04-24T05:03:27.760Z,99526.22
2023-04-24T05:06:03.163Z,99525.44
2023-04-24T05:08:33.134Z,99526.22
2023-04-24T05:10:59.977Z,99526.91
2023-04-24T05:13:39.276Z,99534.75
2023-04-24T05:16:15.862Z,99529.75
2023-04-24T05:18:42.483Z,99533.13
2023-04-24T05:21:11.367Z,99532.22
2023-04-24T05:23:40.638Z,99534.75
2023-04-24T05:26:07.924Z,99532.91
2023-04-24T05:28:37.394Z,99519.25
2023-04-24T05:31:08.364Z,99521.66
2023-04-24T05:33:35.458Z,99527.50
2023-04-24T05:36:02.254Z,99526.97
2023-04-24T05:38:28.786Z,99541.59
2023-04-24T05:40:55.432Z,99540.84
2023-04-24T05:43:21.934Z,99543.59
2023-04-24T05:45:48.426Z,99546.66
2023-04-24T05:48:14.915Z,99545.72
2023-04-24T05:50:41.336Z,99558.34
2023-04-24T05:53:08.220Z,99557.66
2023-04-24T05:55:36.898Z,99556.06
2023-04-24T05:58:03.795Z,99560.75
2023-04-24T06:00:31.211Z,99565.41
2023-04-24T06:03:05.038Z,99570.31
2023-04-24T06:05:32.518Z,99562.31
2023-04-24T06:07:59.011Z,99565.03
2023-04-24T06:10:29.818Z,99566.56
2023-04-24T06:13:02.263Z,99559.13
2023-04-24T06:15:31.933Z,99574.91
2023-04-24T06:18:04.294Z,99571.34
2023-04-24T06:20:30.829Z,99580.34
2023-04-24T06:22:57.312Z,99584.44
2023-04-24T06:25:27.181Z,99582.44
2023-04-24T06:27:53.889Z,99592.97
2023-04-24T06:30:20.383Z,99600.78
2023-04-24T06:32:47.151Z,99597.78
2023-04-24T06:35:15.586Z,99592.25
2023-04-24T06:37:43.114Z,99601.41
2023-04-24T06:40:10.229Z,99592.16
2023-04-24T06:42:37.399Z,99592.88
2023-04-24T06:45:04.577Z,99600.19
2023-04-24T06:47:31.109Z,99602.13
2023-04-24T06:49:58.080Z,99602.66
2023-04-24T06:52:24.492Z,99603.03
2023-04-24T06:54:50.997Z,99601.53
2023-04-24T06:57:19.271Z,99600.41
2023-04-24T06:59:46.048Z,99599.81
2023-04-24T07:02:12.609Z,99600.63
2023-04-24T07:04:39.175Z,99597.06
2023-04-24T07:07:06.987Z,99588.38
2023-04-24T07:09:33.402Z,99589.34
2023-04-24T07:11:59.793Z,99605.97
2023-04-24T07:14:26.496Z,99600.94
2023-04-24T07:16:53.052Z,99601.69
2023-04-24T07:19:19.486Z,99598.47
2023-04-24T07:21:46.310Z,99593.66
2023-04-24T07:24:13.823Z,99605.03
2023-04-24T07:26:41.100Z,99612.75
2023-04-24T07:29:08.502Z,99608.44
2023-04-24T07:31:35.137Z,99619.81
2023-04-24T07:34:02.405Z,99612.13
2023-04-24T07:36:28.992Z,99628.28
2023-04-24T07:38:56.469Z,99619.16
2023-04-24T07:41:25.035Z,99631.97
2023-04-24T07:43:51.993Z,99642.66
2023-04-24T07:46:18.516Z,99633.91
2023-04-24T07:48:44.970Z,99642.59
2023-04-24T07:51:13.265Z,99639.34
2023-04-24T07:53:39.696Z,99638.94
2023-04-24T07:56:06.175Z,99643.00
2023-04-24T07:58:32.614Z,99655.78
2023-04-24T08:00:59.062Z,99647.81
2023-04-24T08:03:25.862Z,99662.31
2023-04-24T08:05:52.585Z,99656.28
2023-04-24T08:08:22.344Z,99648.41
2023-04-24T08:10:48.875Z,99652.97
2023-04-24T08:13:15.425Z,99652.34
2023-04-24T08:15:41.960Z,99655.50
2023-04-24T08:18:08.568Z,99656.47
2023-04-24T08:20:35.543Z,99658.16
2023-04-24T08:23:02.417Z,99656.28
2023-04-24T08:25:28.840Z,99666.00
2023-04-24T08:27:55.679Z,99658.88
2023-04-24T08:30:22.325Z,99669.16
2023-04-24T08:32:48.858Z,99661.13
2023-04-24T08:35:15.293Z,99662.81
2023-04-24T08:37:41.833Z,99671.19
2023-04-24T08:40:15.256Z,99673.53
2023-04-24T08:42:46.054Z,99672.28
2023-04-24T08:45:13.844Z,99673.78
2023-04-24T08:47:41.744Z,99664.22
2023-04-24T08:50:10.479Z,99673.00
2023-04-24T08:52:37.527Z,99664.94
2023-04-24T08:55:04.761Z,99669.75
2023-04-24T08:57:33.188Z,99671.97
2023-04-24T09:00:00.767Z,99667.59
2023-04-24T09:02:28.134Z,99666.56
2023-04-24T09:04:56.691Z,99662.34
2023-04-24T09:07:28.829Z,99663.34
2023-04-24T09:09:55.945Z,99659.09
2023-04-24T09:12:22.815Z,99657.34
2023-04-24T09:14:50.908Z,99664.22
2023-04-24T09:17:17.413Z,99661.19
2023-04-24T09:19:43.947Z,99652.09
2023-04-24T09:22:10.601Z,99668.72
2023-04-24T09:24:37.478Z,99661.13
2023-04-24T09:27:04.985Z,99652.69
2023-04-24T09:29:32.830Z,99659.03
2023-04-24T09:31:59.877Z,99656.34
2023-04-24T09:34:28.334Z,99653.56
2023-04-24T09:36:55.738Z,99658.44
2023-04-24T09:39:22.200Z,99654.97
2023-04-24T09:41:50.721Z,99662.09
2023-04-24T09:44:22.203Z,99660.47
2023-04-24T09:46:54.512Z,99670.16
2023-04-24T09:49:25.476Z,99662.19
2023-04-24T09:51:52.688Z,99673.19
2023-04-24T09:54:21.697Z,99680.81
2023-04-24T09:56:50.590Z,99692.88
2023-04-24T09:59:19.718Z,99683.06
2023-04-24T10:01:46.960Z,99689.56
2023-04-24T10:04:18.228Z,99680.25
2023-04-24T10:06:46.078Z,99675.53
2023-04-24T10:09:16.209Z,99673.88
2023-04-24T10:11:47.966Z,99672.41
2023-04-24T10:14:22.643Z,99679.94
2023-04-24T10:16:50.219Z,99668.16
2023-04-24T10:19:17.518Z,99671.19
2023-04-24T10:21:47.521Z,99683.53
2023-04-24T10:24:19.307Z,99676.78
2023-04-24T10:26:53.574Z,99679.56
2023-04-24T10:29:20.686Z,99680.31
2023-04-24T10:31:47.996Z,99670.56
2023-04-24T10:34:17.544Z,99672.84
2023-04-24T10:36:49.546Z,99679.06
2023-04-24T10:39:17.475Z,99687.97
2023-04-24T10:41:44.222Z,99688.88
2023-04-24T10:44:13.389Z,99693.00
2023-04-24T10:46:46.421Z,99682.03
2023-04-24T10:49:13.083Z,99684.94
2023-04-24T10:51:53.940Z,99679.41
2023-04-24T10:54:23.457Z,99680.25
2023-04-24T10:56:51.532Z,99681.25
2023-04-24T10:59:35.757Z,99696.28
2023-04-24T11:02:02.645Z,99707.34
2023-04-24T11:04:33.841Z,99704.06
2023-04-24T11:07:01.077Z,99702.00
2023-04-24T11:09:35.057Z,99698.56
2023-04-24T11:12:15.124Z,99701.72
2023-04-24T11:14:57.596Z,99707.56
2023-04-24T11:17:34.991Z,99713.44
2023-04-24T11:20:24.957Z,99712.13
2023-04-24T11:22:58.766Z,99707.88
2023-04-24T11:25:25.914Z,99710.22
2023-04-24T11:28:04.318Z,99709.22
2023-04-24T11:30:32.598Z,99715.66
2023-04-24T11:33:04.720Z,99701.28
2023-04-24T11:35:39.743Z,99706.00
2023-04-24T11:38:23.201Z,99708.09
2023-04-24T11:40:52.845Z,99706.09
2023-04-24T11:43:20.293Z,99706.72
2023-04-24T11:45:50.312Z,99717.44
2023-04-24T11:48:22.773Z,99713.47
2023-04-24T11:50:49.810Z,99719.78
2023-04-24T11:53:16.212Z,99712.91
2023-04-24T11:55:42.782Z,99720.47
2023-04-24T11:58:09.358Z,99735.13
2023-04-24T12:00:36.467Z,99737.47
2023-04-24T12:03:10.894Z,99741.41
2023-04-24T12:05:38.843Z,99742.53
2023-04-24T12:08:05.956Z,99750.78
2023-04-24T12:10:33.740Z,99751.03
2023-04-24T12:13:00.952Z,99746.00
2023-04-24T12:15:28.488Z,99751.25
2023-04-24T12:17:56.789Z,99755.81
2023-04-24T12:20:29.438Z,99755.88
2023-04-24T12:22:57.668Z,99758.31
2023-04-24T12:25:35.533Z,99767.25
2023-04-24T12:28:05.705Z,99772.31
2023-04-24T12:30:40.439Z,99767.97
2023-04-24T12:33:06.927Z,99769.22
2023-04-24T12:35:34.969Z,99771.75
2023-04-24T12:38:16.346Z,99778.00
2023-04-24T12:40:43.890Z,99785.22
2023-04-24T12:43:18.180Z,99786.91
2023-04-24T12:45:46.106Z,99804.41
2023-04-24T12:48:13.229Z,99813.72
2023-04-24T12:50:39.751Z,99822.53
2023-04-24T12:53:07.517Z,99808.22
2023-04-24T12:55:33.998Z,99823.63
2023-04-24T12:58:00.529Z,99819.22
2023-04-24T13:00:27.669Z,99815.19
2023-04-24T13:02:54.618Z,99822.00
2023-04-24T13:05:22.446Z,99824.06
2023-04-24T13:07:50.117Z,99827.75
2023-04-24T13:10:16.543Z,99829.63
2023-04-24T13:12:46.353Z,99838.41
2023-04-24T13:15:13.501Z,99834.56
2023-04-24T13:17:39.973Z,99847.22
2023-04-24T13:20:07.385Z,99841.28
2023-04-24T13:22:33.845Z,99840.63
2023-04-24T13:25:00.589Z,99854.16
2023-04-24T13:27:27.569Z,99850.16
2023-04-24T13:29:53.958Z,99854.88
2023-04-24T13:32:20.872Z,99864.09
2023-04-24T13:34:47.432Z,99877.00
2023-04-24T13:37:14.003Z,99872.34
2023-04-24T13:39:42.476Z,99881.72
2023-04-24T13:42:09.554Z,99880.09
2023-04-24T13:44:35.947Z,99892.16
2023-04-24T13:47:02.420Z,99897.88
2023-04-24T13:49:29.211Z,99892.00
2023-04-24T13:51:56.690Z,99894.09
2023-04-24T13:54:24.536Z,99893.78
2023-04-24T13:56:52.699Z,99900.09
2023-04-24T13:59:21.258Z,99903.63
2023-04-24T14:01:48.675Z,99911.25
2023-04-24T14:04:15.623Z,99915.91
2023-04-24T14:06:42.227Z,99923.28
2023-04-24T14:09:08.878Z,99927.06
2023-04-24T14:11:36.019Z,99933.06
2023-04-24T14:14:02.454Z,99934.97
2023-04-24T14:16:29.599Z,99928.69
2023-04-24T14:18:57.106Z,99934.06
2023-04-24T14:21:23.535Z,99934.81
2023-04-24T14:23:49.971Z,99938.94
2023-04-24T14:26:16.382Z,99941.63
2023-04-24T14:28:42.862Z,99941.84
2023-04-24T14:31:10.109Z,99943.19
2023-04-24T14:33:36.613Z,99941.91
2023-04-24T14:36:03.888Z,99955.09
2023-04-24T14:38:31.240Z,99949.72
2023-04-24T14:41:06.801Z,99961.28
2023-04-24T14:43:36.094Z,99966.13
2023-04-24T14:46:03.436Z,99967.22
2023-04-24T14:48:29.904Z,99970.56
2023-04-24T14:50:56.397Z,99977.03
2023-04-24T14:53:22.866Z,99984.13
2023-04-24T14:55:49.426Z,99993.63
2023-04-24T14:58:15.900Z,99985.50
2023-04-24T15:00:42.403Z,99986.84
2023-04-24T15:03:09.646Z,99987.88
2023-04-24T15:05:36.837Z,99995.19
2023-04-24T15:08:03.388Z,99993.81
2023-04-24T15:10:30.628Z,99994.63
2023-04-24T15:12:57.209Z,99993.78
2023-04-24T15:15:23.813Z,99991.00
2023-04-24T15:17:50.383Z,100002.97
2023-04-24T15:20:17.149Z,100002.44
2023-04-24T15:22:43.576Z,99999.75
2023-04-24T15:25:11.078Z,100005.44
2023-04-24T15:27:42.402Z,100004.09
2023-04-24T15:30:09.923Z,99998.94
2023-04-24T15:32:36.461Z,100001.31
2023-04-24T15:35:08.413Z,100002.44
2023-04-24T15:37:36.667Z,100008.31
2023-04-24T15:40:05.890Z,100000.41
2023-04-24T15:42:32.352Z,100008.28
2023-04-24T15:44:58.951Z,100006.88
2023-04-24T15:47:26.460Z,100012.00
2023-04-24T15:49:53.858Z,100011.19
2023-04-24T15:52:20.455Z,100013.66
2023-04-24T15:54:47.169Z,100014.50
2023-04-24T15:57:13.541Z,100015.50
2023-04-24T15:59:40.195Z,100016.84
2023-04-24T16:02:10.440Z,100025.50
2023-04-24T16:04:37.582Z,100025.00
2023-04-24T16:07:04.189Z,100027.72
2023-04-24T16:09:30.804Z,100038.28
2023-04-24T16:11:57.285Z,100044.53
2023-04-24T16:14:25.364Z,100037.47
2023-04-24T16:16:51.760Z,100040.25
2023-04-24T16:19:18.136Z,100055.44
2023-04-24T16:21:44.539Z,100043.84
2023-04-24T16:24:11.540Z,100049.56
2023-04-24T16:26:38.070Z,100060.16
2023-04-24T16:29:04.518Z,100051.50
2023-04-24T16:31:31.409Z,100051.25
2023-04-24T16:33:57.904Z,100054.75
2023-04-24T16:36:24.423Z,100057.72
2023-04-24T16:38:51.054Z,100064.75
2023-04-24T16:41:18.324Z,100062.88
2023-04-24T16:43:44.814Z,100066.91
2023-04-24T16:46:11.474Z,100056.41
2023-04-24T16:48:37.921Z,100073.44
2023-04-24T16:51:04.410Z,100059.63
2023-04-24T16:53:30.841Z,100073.19
2023-04-24T16:55:57.347Z,100078.31
2023-04-24T16:58:23.853Z,100079.97
2023-04-24T17:00:50.425Z,100081.88
2023-04-24T17:03:17.944Z,100074.84
2023-04-24T17:05:44.525Z,100081.88
2023-04-24T17:08:10.947Z,100087.56
2023-04-24T17:10:37.360Z,100077.28
2023-04-24T17:13:03.791Z,100087.84
2023-04-24T17:15:30.589Z,100081.63
2023-04-24T17:17:57.656Z,100096.00
2023-04-24T17:20:25.474Z,100086.50
2023-04-24T17:22:52.949Z,100097.81
2023-04-24T17:25:19.913Z,100085.34
2023-04-24T17:27:46.492Z,100083.72
2023-04-24T17:30:14.636Z,100094.03
2023-04-24T17:32:41.562Z,100085.66
2023-04-24T17:35:08.346Z,100091.06
2023-04-24T17:37:35.845Z,100091.56
2023-04-24T17:40:03.523Z,100088.88
2023-04-24T17:42:29.942Z,100090.25
2023-04-24T17:44:56.334Z,100090.00
2023-04-24T17:47:26.147Z,100088.13
2023-04-24T17:49:52.791Z,100093.25
2023-04-24T17:52:19.234Z,100090.84
2023-04-24T17:54:46.159Z,100084.91
2023-04-24T17:57:13.259Z,100086.50
2023-04-24T17:59:39.697Z,100094.66
2023-04-24T18:02:06.389Z,100096.53
2023-04-24T18:04:32.988Z,100098.16
2023-04-24T18:06:59.462Z,100097.38
2023-04-24T18:09:26.202Z,100100.63
2023-04-24T18:11:52.634Z,100106.06
2023-04-24T18:14:19.091Z,100120.94
2023-04-24T18:16:45.633Z,100121.53
2023-04-24T18:19:12.096Z,100118.25
2023-04-24T18:21:38.501Z,100122.06
2023-04-24T18:24:05.268Z,100131.25
2023-04-24T18:26:31.749Z,100126.13
2023-04-24T18:28:58.392Z,100129.09
2023-04-24T18:31:25.038Z,100123.94
2023-04-24T18:33:53.393Z,100121.50
2023-04-24T18:36:20.200Z,100129.63
2023-04-24T18:38:46.832Z,100131.53
2023-04-24T18:41:14.374Z,100125.34
2023-04-24T18:43:40.877Z,100132.63
2023-04-24T18:46:07.353Z,100129.38
2023-04-24T18:48:33.764Z,100136.69
2023-04-24T18:51:00.454Z,100139.66
2023-04-24T18:53:27.585Z,100142.13
2023-04-24T18:55:54.234Z,100141.53
2023-04-24T18:58:20.693Z,100143.97
2023-04-24T19:00:47.389Z,100136.69
2023-04-24T19:03:13.991Z,100142.91
2023-04-24T19:05:40.517Z,100143.44
2023-04-24T19:08:06.974Z,100147.53
2023-04-24T19:10:34.264Z,100151.84
2023-04-24T19:13:02.263Z,100141.53
2023-04-24T19:15:29.855Z,100153.75
2023-04-24T19:17:56.752Z,100155.34
2023-04-24T19:20:23.456Z,100154.53
2023-04-24T19:22:50.814Z,100158.63
2023-04-24T19:25:17.564Z,100156.13
2023-04-24T19:27:44.046Z,100159.09
2023-04-24T19:30:10.894Z,100160.72
2023-04-24T19:32:37.324Z,100170.44
2023-04-24T19:35:03.923Z,100170.13
2023-04-24T19:37:32.216Z,100163.38
2023-04-24T19:39:58.865Z,100162.84
2023-04-24T19:42:35.854Z,100164.69
2023-04-24T19:45:09.473Z,100174.41
2023-04-24T19:47:35.964Z,100174.69
2023-04-24T19:50:02.381Z,100166.31
2023-04-24T19:52:29.022Z,100174.09
2023-04-24T19:54:55.641Z,100173.06
2023-04-24T19:57:22.228Z,100170.09
2023-04-24T19:59:48.590Z,100166.63
2023-04-24T20:02:15.128Z,100166.56
2023-04-24T20:04:41.933Z,100168.78
2023-04-24T20:07:08.783Z,100167.16
2023-04-24T20:09:35.258Z,100163.38
2023-04-24T20:12:02.766Z,100161.50
2023-04-24T20:14:29.245Z,100160.94
2023-04-24T20:16:55.687Z,100160.97
2023-04-24T20:19:22.142Z,100161.75
2023-04-24T20:21:48.582Z,100160.41
2023-04-24T20:24:16.128Z,100167.16
2023-04-24T20:26:42.857Z,100168.03
2023-04-24T20:29:09.395Z,100170.97
2023-04-24T20:31:36.072Z,100171.25
2023-04-24T20:34:02.973Z,100168.25
2023-04-24T20:36:29.432Z,100166.91
2023-04-24T20:38:57.168Z,100165.31
2023-04-24T20:41:24.646Z,100173.69
2023-04-24T20:43:51.066Z,100169.09
2023-04-24T20:46:17.504Z,100171.53
2023-04-24T20:48:43.991Z,100169.94
2023-04-24T20:51:10.510Z,100172.59
2023-04-24T20:53:36.944Z,100164.78
2023-04-24T20:56:03.438Z,100172.59
2023-04-24T20:58:29.983Z,100161.25
2023-04-24T21:00:56.751Z,100161.81
2023-04-24T21:03:23.498Z,100159.13
2023-04-24T21:05:50.186Z,100154.00
2023-04-24T21:08:17.015Z,100159.16
2023-04-24T21:10:43.491Z,100160.47
2023-04-24T21:13:10.050Z,100162.66
2023-04-24T21:15:36.719Z,100169.69
2023-04-24T21:18:03.714Z,100173.72
2023-04-24T21:20:30.357Z,100170.22
2023-04-24T21:22:57.033Z,100169.69
2023-04-24T21:25:23.460Z,100166.94
2023-04-24T21:27:50.049Z,100166.69
2023-04-24T21:30:16.633Z,100167.50
2023-04-24T21:32:43.274Z,100174.53
2023-04-24T21:35:09.959Z,100169.94
2023-04-24T21:37:37.695Z,100168.56
2023-04-24T21:40:04.699Z,100174.53
2023-04-24T21:42:31.707Z,100175.03
2023-04-24T21:44:58.486Z,100173.97
2023-04-24T21:47:25.254Z,100171.53
2023-04-24T21:49:51.735Z,100172.31
2023-04-24T21:52:18.157Z,100175.59
2023-04-24T21:54:44.711Z,100182.34
2023-04-24T21:57:11.821Z,100180.72
2023-04-24T21:59:38.448Z,100171.53
2023-04-24T22:02:04.929Z,100179.38
2023-04-24T22:04:31.537Z,100181.81
2023-04-24T22:06:58.185Z,100185.03
2023-04-24T22:09:24.697Z,100181.28
2023-04-24T22:11:51.107Z,100185.03
2023-04-24T22:14:17.556Z,100189.91
2023-04-24T22:16:46.289Z,100187.72
2023-04-24T22:19:12.694Z,100193.41
2023-04-24T22:21:40.389Z,100187.72
2023-04-24T22:24:07.486Z,100189.59
2023-04-24T22:26:34.038Z,100193.38
2023-04-24T22:29:00.952Z,100200.63
2023-04-24T22:31:27.876Z,100200.38
2023-04-24T22:33:54.481Z,100191.47
2023-04-24T22:36:21.340Z,100193.88
2023-04-24T22:38:47.773Z,100196.56
2023-04-24T22:41:14.353Z,100198.72
2023-04-24T22:43:40.844Z,100193.09
2023-04-24T22:46:07.279Z,100197.13
2023-04-24T22:48:34.373Z,100194.97
2023-04-24T22:51:01.176Z,100187.94
2023-04-24T22:53:28.892Z,100188.47
2023-04-24T22:55:56.640Z,100194.38
2023-04-24T22:58:23.785Z,100191.38
2023-04-24T23:00:50.745Z,100195.44
2023-04-24T23:03:17.392Z,100201.94
2023-04-24T23:05:43.999Z,100193.31
2023-04-24T23:08:10.423Z,100198.66
2023-04-24T23:10:36.958Z,100194.31
2023-04-24T23:13:03.584Z,100183.69
2023-04-24T23:15:30.015Z,100179.31
2023-04-24T23:17:56.693Z,100187.47
2023-04-24T23:20:23.328Z,100187.22
2023-04-24T23:22:49.857Z,100183.38
2023-04-24T23:25:16.269Z,100184.75
2023-04-24T23:27:42.714Z,100184.72
2023-04-24T23:30:09.566Z,100179.31
2023-04-24T23:32:36.047Z,100184.75
2023-04-24T23:35:02.573Z,100176.13
2023-04-24T23:37:29.327Z,100180.88
2023-04-24T23:39:55.792Z,100180.09
2023-04-24T23:42:22.253Z,100168.47
2023-04-24T23:44:48.704Z,100167.09
2023-04-24T23:47:15.276Z,100167.06
2023-04-24T23:49:41.647Z,100163.06
2023-04-24T23:52:08.080Z,100169.84
2023-04-24T23:54:34.951Z,100170.59
2023-04-24T23:57:03.213Z,100161.25
2023-04-24T23:59:30.548Z,100171.75
